createdAt,value
2019-04-20T00:04:30.993Z,10.82
2019-04-20T00:09:36.560Z,10.99
2019-04-20T00:14:40.541Z,11.01
2019-04-20T00:19:50.369Z,10.84
2019-04-20T00:25:15.520Z,10.59
2019-04-20T00:30:31.456Z,11.02
2019-04-20T00:35:23.056Z,11.37
2019-04-20T00:40:28.546Z,11.43
2019-04-20T00:45:36.475Z,11.39
2019-04-20T00:50:57.498Z,11.30
2019-04-20T00:55:48.492Z,10.79
2019-04-20T01:01:13.061Z,10.61
2019-04-20T01:06:26.981Z,10.63
2019-04-20T01:11:23.150Z,11.17
2019-04-20T01:16:33.639Z,10.80
2019-04-20T01:21:32.167Z,10.97
2019-04-20T01:26:45.968Z,9.92
2019-04-20T01:31:56.016Z,10.68
2019-04-20T01:37:04.393Z,11.17
2019-04-20T01:41:56.130Z,11.29
2019-04-20T01:47:04.533Z,11.21
2019-04-20T01:52:17.350Z,11.42
2019-04-20T01:57:53.421Z,11.28
2019-04-20T02:02:47.718Z,11.31
2019-04-20T02:07:49.380Z,11.03
2019-04-20T02:12:59.872Z,10.66
2019-04-20T02:18:15.010Z,10.13
2019-04-20T02:23:23.747Z,10.89
2019-04-20T02:28:27.277Z,11.25
2019-04-20T02:44:18.058Z,10.92
2019-04-20T02:49:29.651Z,11.21
2019-04-20T02:59:57.525Z,11.01
2019-04-20T03:04:06.947Z,11.20
2019-04-20T03:09:32.455Z,10.95
2019-04-20T03:14:33.607Z,10.16
2019-04-20T03:19:40.157Z,10.78
2019-04-20T03:24:49.841Z,10.99
2019-04-20T03:29:56.661Z,11.20
2019-04-20T03:40:07.354Z,11.01
2019-04-20T03:45:00.540Z,11.19
2019-04-20T03:50:29.323Z,11.35
2019-04-20T03:55:34.188Z,11.56
2019-04-20T04:00:51.773Z,11.53
2019-04-20T04:05:50.928Z,11.56
2019-04-20T04:11:02.809Z,11.40
2019-04-20T04:15:59.249Z,11.51
2019-04-20T04:21:03.882Z,11.56
2019-04-20T04:26:22.099Z,11.55
2019-04-20T04:31:32.331Z,11.63
2019-04-20T04:36:36.170Z,11.70
2019-04-20T04:41:39.936Z,11.58
2019-04-20T04:46:33.935Z,10.29
2019-04-20T04:51:47.086Z,11.71
2019-04-20T04:56:44.178Z,11.37
2019-04-20T05:01:53.423Z,11.69
2019-04-20T05:07:07.935Z,11.33
2019-04-20T05:12:09.899Z,11.79
2019-04-20T05:17:29.159Z,11.28
2019-04-20T05:22:58.707Z,12.05
2019-04-20T05:28:16.841Z,12.03
2019-04-20T05:33:21.211Z,11.75
2019-04-20T05:38:41.898Z,11.94
2019-04-20T05:43:41.498Z,11.87
2019-04-20T05:49:00.351Z,12.19
2019-04-20T05:54:02.803Z,11.45
2019-04-20T05:59:05.843Z,11.63
2019-04-20T06:04:10.504Z,11.60
2019-04-20T06:09:22.673Z,11.98
2019-04-20T06:14:20.550Z,11.83
2019-04-20T06:19:45.415Z,12.20
2019-04-20T06:24:59.168Z,11.95
2019-04-20T06:29:55.761Z,10.94
2019-04-20T06:35:09.307Z,11.70
2019-04-20T06:40:29.303Z,12.32
2019-04-20T06:45:20.083Z,12.45
2019-04-20T06:50:24.367Z,12.68
2019-04-20T06:55:38.694Z,12.80
2019-04-20T07:00:40.066Z,12.60
2019-04-20T07:05:49.042Z,13.01
2019-04-20T07:11:10.793Z,13.45
2019-04-20T07:15:54.492Z,13.24
2019-04-20T07:21:05.782Z,13.71
2019-04-20T07:26:16.822Z,14.37
2019-04-20T07:31:19.070Z,13.77
2019-04-20T07:36:32.457Z,14.60
2019-04-20T07:41:42.996Z,14.58
2019-04-20T07:46:47.181Z,14.26
2019-04-20T07:51:31.672Z,13.54
2019-04-20T07:56:48.011Z,13.82
2019-04-20T08:02:11.991Z,13.40
2019-04-20T08:06:54.746Z,13.42
2019-04-20T08:12:22.169Z,13.38
2019-04-20T08:17:44.271Z,14.23
2019-04-20T08:22:28.279Z,14.59
2019-04-20T08:27:17.611Z,14.47
2019-04-20T08:32:41.438Z,14.15
2019-04-20T08:38:00.884Z,13.89
2019-04-20T08:43:07.914Z,14.43
2019-04-20T08:48:16.066Z,13.71
2019-04-20T08:53:17.473Z,13.01
2019-04-20T08:57:54.809Z,13.63
2019-04-20T09:03:09.408Z,13.51
2019-04-20T09:08:14.440Z,13.57
2019-04-20T09:13:21.412Z,13.38
2019-04-20T09:18:36.693Z,14.12
2019-04-20T09:23:49.695Z,14.08
2019-04-20T09:28:59.286Z,13.69
2019-04-20T09:34:16.157Z,13.38
2019-04-20T09:39:15.074Z,14.62
2019-04-20T09:44:13.707Z,14.79
2019-04-20T09:49:32.641Z,15.25
2019-04-20T09:54:42.928Z,15.07
2019-04-20T09:59:49.707Z,15.57
2019-04-20T10:04:37.588Z,14.78
2019-04-20T10:09:44.947Z,14.86
2019-04-20T10:14:50.884Z,14.78
2019-04-20T10:19:55.817Z,14.99
2019-04-20T10:25:02.529Z,15.39
2019-04-20T10:30:08.224Z,16.22
2019-04-20T10:35:15.104Z,15.18
2019-04-20T10:40:36.851Z,14.83
2019-04-20T10:45:26.702Z,13.14
2019-04-20T10:50:32.379Z,12.95
2019-04-20T10:55:37.741Z,13.10
2019-04-20T11:00:44.138Z,12.96
2019-04-20T11:05:49.037Z,13.32
2019-04-20T11:11:03.493Z,13.85
2019-04-20T11:16:02.187Z,15.20
2019-04-20T11:21:07.146Z,15.36
2019-04-20T11:26:12.220Z,15.79
2019-04-20T11:31:16.983Z,15.10
2019-04-20T11:36:23.186Z,16.55
2019-04-20T11:41:33.653Z,16.40
2019-04-20T11:46:38.714Z,16.46
2019-04-20T11:51:43.614Z,14.93
2019-04-20T11:56:49.063Z,13.80
2019-04-20T12:02:07.602Z,13.93
2019-04-20T12:07:11.085Z,13.77
2019-04-20T12:12:27.529Z,13.66
2019-04-20T12:17:23.683Z,14.06
2019-04-20T12:22:28.663Z,14.15
2019-04-20T12:27:34.431Z,15.40
2019-04-20T12:32:42.984Z,14.05
2019-04-20T12:37:47.237Z,15.42
2019-04-20T12:42:53.038Z,15.26
2019-04-20T12:47:58.014Z,15.11
2019-04-20T12:53:02.754Z,14.02
2019-04-20T12:58:10.414Z,14.79
2019-04-20T13:03:15.321Z,15.59
2019-04-20T13:08:21.713Z,15.18
2019-04-20T13:13:46.214Z,15.21
2019-04-20T13:18:55.321Z,15.75
2019-04-20T13:24:00.890Z,16.39
2019-04-20T13:29:06.774Z,16.46
2019-04-20T13:34:13.284Z,16.78
2019-04-20T13:39:19.890Z,16.36
2019-04-20T13:44:24.795Z,16.45
2019-04-20T13:49:29.440Z,16.48
2019-04-20T13:54:34.182Z,16.52
2019-04-20T13:59:50.023Z,17.24
2019-04-20T14:04:57.310Z,16.43
2019-04-20T14:10:01.998Z,15.23
2019-04-20T14:15:07.513Z,16.20
2019-04-20T14:20:15.830Z,15.26
2019-04-20T14:25:18.729Z,14.38
2019-04-20T14:30:24.739Z,13.93
2019-04-20T14:35:29.646Z,13.87
2019-04-20T14:40:34.713Z,13.92
2019-04-20T14:45:41.076Z,14.20
2019-04-20T14:50:45.817Z,13.52
2019-04-20T14:55:51.427Z,14.27
2019-04-20T15:00:58.540Z,14.29
2019-04-20T15:06:03.546Z,14.19
2019-04-20T15:11:09.285Z,14.24
2019-04-20T15:16:15.046Z,14.44
2019-04-20T15:21:23.776Z,13.83
2019-04-20T15:26:28.790Z,14.36
2019-04-20T15:31:34.329Z,14.49
2019-04-20T15:36:40.214Z,14.26
2019-04-20T15:41:45.294Z,14.57
2019-04-20T15:46:51.529Z,14.96
2019-04-20T15:51:57.502Z,14.04
2019-04-20T15:57:09.244Z,14.76
2019-04-20T16:02:11.370Z,14.53
2019-04-20T16:07:17.198Z,14.96
2019-04-20T16:12:23.028Z,14.38
2019-04-20T16:17:32.765Z,14.35
2019-04-20T16:22:36.551Z,14.54
2019-04-20T16:27:41.620Z,13.89
2019-04-20T16:32:46.488Z,14.49
2019-04-20T16:37:52.644Z,14.49
2019-04-20T16:42:58.520Z,14.12
2019-04-20T16:48:05.036Z,14.35
2019-04-20T16:53:10.752Z,14.14
2019-04-20T16:58:17.762Z,14.65
2019-04-20T17:03:27.859Z,14.64
2019-04-20T17:08:31.105Z,14.35
2019-04-20T17:13:43.404Z,14.10
2019-04-20T17:18:43.369Z,13.80
2019-04-20T17:23:49.104Z,13.59
2019-04-20T17:28:55.688Z,12.37
2019-04-20T17:34:17.530Z,12.75
2019-04-20T17:39:11.903Z,12.65
2019-04-20T17:44:31.429Z,11.94
2019-04-20T17:49:36.886Z,12.10
2019-04-20T17:54:37.642Z,11.98
2019-04-20T17:59:51.211Z,11.61
2019-04-20T18:05:25.616Z,11.77
2019-04-20T18:10:25.996Z,11.92
2019-04-20T18:15:33.520Z,11.63
2019-04-20T18:20:34.929Z,10.85
2019-04-20T18:26:06.086Z,10.64
2019-04-20T18:31:07.138Z,10.81
2019-04-20T18:36:13.310Z,10.74
2019-04-20T18:41:33.206Z,10.23
2019-04-20T18:46:49.917Z,10.58
2019-04-20T18:51:30.266Z,10.77
2019-04-20T18:56:41.954Z,10.44
2019-04-20T19:01:43.751Z,10.77
2019-04-20T19:06:52.475Z,10.36
2019-04-20T19:12:07.418Z,10.25
2019-04-20T19:17:49.292Z,9.94
2019-04-20T19:22:46.037Z,10.20
2019-04-20T19:27:55.609Z,9.85
2019-04-20T19:33:17.616Z,9.61
2019-04-20T19:38:12.557Z,9.57
2019-04-20T19:43:20.778Z,9.70
2019-04-20T19:48:32.152Z,9.74
2019-04-20T19:53:48.287Z,9.66
2019-04-20T19:58:45.537Z,8.94
2019-04-20T20:03:38.062Z,8.95
2019-04-20T20:08:53.145Z,8.68
2019-04-20T20:13:55.318Z,8.22
2019-04-20T20:19:07.430Z,8.64
2019-04-20T20:24:06.047Z,8.78
2019-04-20T20:29:23.279Z,8.37
2019-04-20T20:39:40.369Z,8.63
2019-04-20T20:44:52.676Z,8.80
2019-04-20T20:50:14.040Z,8.40
2019-04-20T20:55:06.481Z,7.71
2019-04-20T21:00:24.177Z,8.04
2019-04-20T21:05:15.636Z,7.85
2019-04-20T21:10:25.869Z,7.43
2019-04-20T21:15:28.567Z,7.76
2019-04-20T21:20:55.098Z,7.24
2019-04-20T21:25:47.566Z,7.24
2019-04-20T21:30:48.993Z,7.54
2019-04-20T21:35:55.103Z,7.58
2019-04-20T21:41:05.100Z,7.07
2019-04-20T21:46:08.940Z,7.45
2019-04-20T21:51:29.689Z,7.38
2019-04-20T21:56:19.873Z,7.18
2019-04-20T22:01:33.371Z,7.86
2019-04-20T22:06:32.048Z,7.56
2019-04-20T22:11:37.920Z,6.57
2019-04-20T22:16:49.195Z,5.77
2019-04-20T22:22:00.886Z,6.40
2019-04-20T22:27:06.354Z,6.24
2019-04-20T22:32:08.914Z,6.33
2019-04-20T22:37:17.826Z,6.75
2019-04-20T22:42:18.291Z,6.92
2019-04-20T22:47:28.150Z,6.94
2019-04-20T22:52:42.725Z,6.80
2019-04-20T22:57:52.381Z,6.61
2019-04-20T23:02:42.715Z,6.68
2019-04-20T23:07:48.684Z,6.37
2019-04-20T23:12:57.545Z,6.51
2019-04-20T23:18:00.139Z,6.36
2019-04-20T23:23:04.995Z,6.04
2019-04-20T23:28:13.816Z,6.30
2019-04-20T23:33:16.121Z,6.52
2019-04-20T23:38:24.170Z,5.96
2019-04-20T23:43:33.365Z,6.13
2019-04-20T23:48:41.214Z,5.72
2019-04-20T23:53:54.068Z,5.59
2019-04-20T23:58:53.446Z,6.37
